Time;durP1;ratioP1;P1;durP2;ratioP2;P2;SDS_P1;SDS_P2;PMS_P1;PMS_P2;Temp;Humidity;BMP_temperature;BMP_pressure;BME280_temperature;BME280_humidity;BME280_pressure;Samples;Min_cycle;Max_cycle;Signal;HPM_P1;HPM_P2
2023/04/01 00:01:05;;;;;;;2.50;1.50;;;;;;;9.33;100.00;97197.56;109567;1250;58964;-75
2023/04/01 00:03:33;;;;;;;2.30;1.70;;;;;;;9.31;100.00;97197.17;109573;1251;59114;-75
2023/04/01 00:06:00;;;;;;;3.90;1.80;;;;;;;9.31;100.00;97193.98;109594;1250;67142;-76
2023/04/01 00:08:28;;;;;;;3.60;2.00;;;;;;;9.31;100.00;97191.73;109630;1250;59992;-75
2023/04/01 00:10:56;;;;;;;3.50;1.90;;;;;;;9.30;100.00;97185.94;109572;1250;65224;-75
2023/04/01 00:13:25;;;;;;;5.70;2.10;;;;;;;9.29;100.00;97184.98;109588;1250;58961;-75
2023/04/01 00:15:53;;;;;;;2.60;1.90;;;;;;;9.28;100.00;97185.42;109584;1250;59220;-75
2023/04/01 00:18:20;;;;;;;3.30;1.70;;;;;;;9.27;100.00;97183.04;109579;1250;65636;-75
2023/04/01 00:20:48;;;;;;;4.60;1.80;;;;;;;9.27;100.00;97182.50;109308;1251;59037;-75
2023/04/01 00:23:16;;;;;;;3.30;1.70;;;;;;;9.27;100.00;97181.45;109522;1251;63800;-75
2023/04/01 00:25:45;;;;;;;3.40;1.90;;;;;;;9.27;100.00;97182.02;109598;1250;58946;-75
2023/04/01 00:28:11;;;;;;;3.10;1.80;;;;;;;9.25;100.00;97183.77;109583;1251;58947;-75
2023/04/01 00:30:38;;;;;;;3.90;1.60;;;;;;;9.21;100.00;97175.40;109608;1250;65628;-75
2023/04/01 00:33:04;;;;;;;3.60;2.10;;;;;;;9.19;100.00;97179.70;109629;1250;60986;-75
2023/04/01 00:35:32;;;;;;;3.80;2.20;;;;;;;9.17;100.00;97181.51;109605;1251;63732;-75
2023/04/01 00:37:58;;;;;;;3.60;1.60;;;;;;;9.14;100.00;97178.40;109620;1251;58997;-75
2023/04/01 00:40:35;;;;;;;3.70;2.20;;;;;;;9.11;100.00;97174.95;109598;1250;58887;-75
2023/04/01 00:43:03;;;;;;;2.60;1.40;;;;;;;9.07;100.00;97177.46;109323;1251;66174;-75
2023/04/01 00:45:39;;;;;;;2.20;1.20;;;;;;;9.01;100.00;97172.42;109565;1251;60725;-75
2023/04/01 00:48:12;;;;;;;1.70;1.30;;;;;;;8.96;100.00;97173.76;109587;1250;65214;-75
2023/04/01 00:50:42;;;;;;;2.80;1.50;;;;;;;8.91;100.00;97176.91;109600;1251;58976;-75
2023/04/01 00:53:10;;;;;;;4.70;1.70;;;;;;;8.87;100.00;97178.85;109561;1250;59845;-74
2023/04/01 00:55:45;;;;;;;4.30;1.70;;;;;;;8.83;100.00;97185.09;109574;1250;65639;-75
2023/04/01 00:58:17;;;;;;;2.80;1.50;;;;;;;8.78;100.00;97191.00;109596;1250;60738;-74
2023/04/01 01:00:46;;;;;;;3.60;1.50;;;;;;;8.74;100.00;97193.42;109578;1250;63510;-74
2023/04/01 01:03:13;;;;;;;3.20;1.70;;;;;;;8.73;100.00;97195.48;109591;1250;58944;-75
2023/04/01 01:06:29;;;;;;;3.30;1.60;;;;;;;8.75;100.00;97196.39;109302;1250;59052;-75
2023/04/01 01:09:24;;;;;;;5.50;1.50;;;;;;;8.77;100.00;97196.23;108922;1259;66970;-74
2023/04/01 01:12:12;;;;;;;3.30;1.30;;;;;;;8.79;100.00;97200.81;108962;1259;59798;-75
2023/04/01 01:14:44;;;;;;;2.80;1.70;;;;;;;8.82;100.00;97200.24;108921;1259;65174;-74
2023/04/01 01:17:52;;;;;;;4.00;2.00;;;;;;;8.84;100.00;97204.10;108898;1259;59433;-75
2023/04/01 01:20:37;;;;;;;1.90;1.30;;;;;;;8.87;100.00;97205.59;108381;1268;59103;-75
2023/04/01 01:23:23;;;;;;;2.90;2.00;;;;;;;8.88;100.00;97203.56;108398;1268;66717;-74
2023/04/01 01:26:10;;;;;;;2.60;1.60;;;;;;;8.89;100.00;97204.02;108437;1268;61145;-75
2023/04/01 01:28:59;;;;;;;2.90;2.20;;;;;;;8.86;100.00;97200.92;108418;1268;64872;-75
2023/04/01 01:31:26;;;;;;;2.10;1.70;;;;;;;8.80;100.00;97199.11;108383;1268;59102;-75
2023/04/01 01:34:01;;;;;;;3.40;1.80;;;;;;;8.73;100.00;97194.92;108422;1268;59243;-75
2023/04/01 01:36:34;;;;;;;3.60;1.70;;;;;;;8.65;100.00;97192.13;108413;1268;67068;-75
2023/04/01 01:39:04;;;;;;;2.50;1.60;;;;;;;8.57;100.00;97188.04;108417;1268;60772;-75
2023/04/01 01:41:33;;;;;;;2.90;1.80;;;;;;;8.50;100.00;97184.23;108277;1268;64855;-75
2023/04/01 01:44:03;;;;;;;4.40;1.70;;;;;;;8.43;100.00;97183.79;108435;1267;59282;-75
2023/04/01 01:46:30;;;;;;;3.40;1.90;;;;;;;8.37;100.00;97186.77;108762;1262;59017;-75
2023/04/01 01:49:00;;;;;;;4.40;2.10;;;;;;;8.32;100.00;97181.52;108767;1262;65634;-75
2023/04/01 01:51:27;;;;;;;3.80;1.90;;;;;;;8.28;100.00;97182.77;108788;1262;60875;-75
2023/04/01 01:53:54;;;;;;;2.70;1.80;;;;;;;8.26;100.00;97187.15;108740;1261;64095;-75
2023/04/01 01:56:26;;;;;;;3.00;2.10;;;;;;;8.26;100.00;97194.23;108589;1262;58994;-75
2023/04/01 01:59:05;;;;;;;3.70;1.90;;;;;;;8.26;100.00;97193.00;109347;1253;59017;-75
2023/04/01 02:01:44;;;;;;;3.80;2.10;;;;;;;8.27;100.00;97199.48;109355;1253;66770;-75
2023/04/01 02:04:13;;;;;;;4.80;2.10;;;;;;;8.27;100.00;97201.27;109417;1253;60007;-75
2023/04/01 02:06:45;;;;;;;3.00;2.10;;;;;;;8.28;100.00;97198.00;109369;1254;63696;-76
2023/04/01 02:09:12;;;;;;;4.30;2.10;;;;;;;8.28;100.00;97195.15;109352;1254;59123;-75
2023/04/01 02:11:51;;;;;;;4.20;2.10;;;;;;;8.28;100.00;97197.23;109367;1253;59454;-75
2023/04/01 02:14:22;;;;;;;3.80;2.50;;;;;;;8.29;100.00;97202.68;109417;1254;67667;-75
2023/04/01 02:17:30;;;;;;;3.60;2.30;;;;;;;8.29;100.00;97203.88;109396;1250;60796;-75
2023/04/01 02:20:08;;;;;;;4.20;1.90;;;;;;;8.32;100.00;97207.15;109001;1258;62618;-75
2023/04/01 02:22:41;;;;;;;2.10;1.40;;;;;;;8.34;100.00;97205.70;108969;1258;59388;-75
2023/04/01 02:25:12;;;;;;;4.50;2.20;;;;;;;8.37;100.00;97205.15;108913;1259;59115;-75
2023/04/01 02:27:42;;;;;;;3.50;2.10;;;;;;;8.39;100.00;97207.68;108933;1259;66678;-75
2023/04/01 02:30:09;;;;;;;3.10;2.00;;;;;;;8.42;100.00;97210.27;108942;1259;61098;-75
2023/04/01 02:32:38;;;;;;;2.60;2.10;;;;;;;8.44;100.00;97213.04;108953;1258;63773;-75
2023/04/01 02:35:08;;;;;;;2.90;1.80;;;;;;;8.48;100.00;97218.44;108941;1258;59030;-75
2023/04/01 02:37:35;;;;;;;3.30;1.90;;;;;;;8.51;100.00;97216.88;108955;1258;59264;-74
2023/04/01 02:40:06;;;;;;;4.00;2.00;;;;;;;8.54;100.00;97214.54;108947;1259;66688;-75
2023/04/01 02:42:34;;;;;;;5.90;1.80;;;;;;;8.58;100.00;97213.13;108860;1258;61261;-75
2023/04/01 02:45:01;;;;;;;3.10;1.80;;;;;;;8.61;100.00;97216.92;108923;1258;63715;-75
2023/04/01 02:47:27;;;;;;;2.30;1.80;;;;;;;8.64;100.00;97218.14;108795;1258;59071;-75
2023/04/01 02:49:57;;;;;;;4.00;1.80;;;;;;;8.65;100.00;97218.16;109061;1258;58960;-75
2023/04/01 02:52:25;;;;;;;3.30;2.10;;;;;;;8.67;100.00;97220.46;109426;1251;66891;-75
2023/04/01 02:54:51;;;;;;;2.50;1.90;;;;;;;8.69;100.00;97219.78;109585;1251;60771;-75
2023/04/01 02:57:18;;;;;;;3.10;1.60;;;;;;;8.71;100.00;97221.52;109583;1250;64694;-75
2023/04/01 02:59:45;;;;;;;5.50;2.20;;;;;;;8.73;100.00;97225.25;109579;1254;58994;-75
2023/04/01 03:02:12;;;;;;;3.60;2.10;;;;;;;8.74;100.00;97229.88;109589;1251;59089;-75
2023/04/01 03:04:38;;;;;;;3.90;1.90;;;;;;;8.76;100.00;97229.02;109395;1251;65792;-75
2023/04/01 03:07:05;;;;;;;4.80;1.90;;;;;;;8.78;100.00;97228.88;109588;1251;61201;-75
2023/04/01 03:09:32;;;;;;;3.20;1.90;;;;;;;8.80;100.00;97227.83;109532;1251;63917;-75
2023/04/01 03:11:59;;;;;;;4.00;1.80;;;;;;;8.81;100.00;97226.13;109546;1251;58954;-75
2023/04/01 03:14:25;;;;;;;3.70;1.80;;;;;;;8.83;100.00;97225.79;109617;1251;59037;-75
2023/04/01 03:16:52;;;;;;;2.20;1.70;;;;;;;8.84;100.00;97226.75;109567;1251;66732;-75
2023/04/01 03:19:18;;;;;;;2.10;1.60;;;;;;;8.86;100.00;97224.42;109585;1250;60794;-75
2023/04/01 03:21:45;;;;;;;3.30;1.70;;;;;;;8.87;100.00;97221.38;109570;1251;64818;-75
2023/04/01 03:24:11;;;;;;;4.00;1.90;;;;;;;8.87;100.00;97220.33;109577;1251;58938;-75
2023/04/01 03:26:38;;;;;;;3.50;2.00;;;;;;;8.87;100.00;97218.85;109576;1251;59403;-75
2023/04/01 03:29:05;;;;;;;2.70;1.70;;;;;;;8.88;100.00;97218.79;109582;1250;65621;-75
2023/04/01 03:31:31;;;;;;;5.00;2.10;;;;;;;8.89;100.00;97218.52;109569;1250;60792;-75
2023/04/01 03:33:58;;;;;;;3.70;2.20;;;;;;;8.90;100.00;97216.98;109541;1250;65168;-75
2023/04/01 03:36:25;;;;;;;5.20;2.60;;;;;;;8.92;100.00;97216.48;109593;1251;58959;-75
2023/04/01 03:38:51;;;;;;;4.60;2.30;;;;;;;8.93;100.00;97214.30;109613;1251;58863;-76
2023/04/01 03:41:18;;;;;;;5.60;2.40;;;;;;;8.94;100.00;97216.48;109568;1251;66700;-75
2023/04/01 03:43:45;;;;;;;3.20;1.90;;;;;;;8.95;100.00;97214.25;109587;1251;60756;-75
2023/04/01 03:46:17;;;;;;;2.40;1.70;;;;;;;8.95;100.00;97216.02;109595;1251;65046;-75
2023/04/01 03:48:43;;;;;;;3.50;1.80;;;;;;;8.95;100.00;97218.16;109590;1251;59301;-75
2023/04/01 03:51:10;;;;;;;2.90;2.10;;;;;;;8.94;100.00;97225.69;109378;1250;58946;-75
2023/04/01 03:53:37;;;;;;;3.70;1.70;;;;;;;8.93;100.00;97225.97;109568;1251;65646;-75
2023/04/01 03:56:07;;;;;;;3.40;1.90;;;;;;;8.90;100.00;97222.49;109579;1250;59809;-75
2023/04/01 03:58:34;;;;;;;4.10;1.90;;;;;;;8.85;100.00;97224.71;109558;1251;64125;-75
2023/04/01 04:01:01;;;;;;;3.80;2.00;;;;;;;8.81;100.00;97230.77;109580;1251;58944;-75
2023/04/01 04:03:28;;;;;;;6.10;2.20;;;;;;;8.77;100.00;97229.66;109581;1251;58966;-75
2023/04/01 04:05:56;;;;;;;3.90;2.10;;;;;;;8.74;100.00;97228.48;109622;1250;65548;-75
2023/04/01 04:08:22;;;;;;;4.20;2.30;;;;;;;8.72;100.00;97227.13;109633;1251;59688;-75
2023/04/01 04:10:55;;;;;;;4.80;2.30;;;;;;;8.69;100.00;97225.55;109633;1251;65055;-75
2023/04/01 04:13:22;;;;;;;2.30;2.10;;;;;;;8.66;100.00;97223.73;109591;1250;58937;-75
2023/04/01 04:15:48;;;;;;;3.30;2.00;;;;;;;8.63;100.00;97228.25;109374;1251;58993;-75
2023/04/01 04:18:15;;;;;;;4.60;2.10;;;;;;;8.58;100.00;97223.67;109612;1251;66760;-75
2023/04/01 04:20:48;;;;;;;4.10;2.00;;;;;;;8.54;100.00;97223.68;109578;1250;59669;-75
2023/04/01 04:23:14;;;;;;;3.80;1.70;;;;;;;8.51;100.00;97222.89;109591;1250;64740;-75
2023/04/01 04:25:41;;;;;;;5.40;2.00;;;;;;;8.49;100.00;97224.19;109600;1251;59087;-75
2023/04/01 04:28:08;;;;;;;5.70;2.40;;;;;;;8.46;100.00;97222.45;109641;1250;59050;-75
2023/04/01 04:30:34;;;;;;;5.30;2.90;;;;;;;8.46;100.00;97222.48;109551;1250;66732;-75
2023/04/01 04:33:01;;;;;;;7.70;3.40;;;;;;;8.48;100.00;97222.16;109587;1250;60989;-75
2023/04/01 04:35:28;;;;;;;6.30;3.00;;;;;;;8.50;100.00;97219.50;109542;1251;64147;-75
2023/04/01 04:37:54;;;;;;;6.00;3.70;;;;;;;8.51;100.00;97219.48;109386;1251;59024;-74
2023/04/01 04:40:21;;;;;;;5.80;3.60;;;;;;;8.55;100.00;97220.25;109589;1251;58862;-75
2023/04/01 04:42:47;;;;;;;5.80;3.30;;;;;;;8.60;100.00;97218.45;109541;1251;64402;-75
2023/04/01 04:45:14;;;;;;;5.00;3.10;;;;;;;8.64;100.00;97215.06;109581;1250;59757;-75
2023/04/01 04:47:41;;;;;;;5.50;3.10;;;;;;;8.68;100.00;97213.58;109262;1251;65044;-75
2023/04/01 04:50:08;;;;;;;4.40;3.00;;;;;;;8.73;100.00;97214.61;109246;1250;59003;-75
2023/04/01 04:52:35;;;;;;;4.40;3.00;;;;;;;8.76;100.00;97218.78;109641;1250;59025;-74
2023/04/01 04:55:01;;;;;;;5.70;2.90;;;;;;;8.81;100.00;97224.20;109593;1251;65634;-75
2023/04/01 04:57:28;;;;;;;4.10;2.60;;;;;;;8.86;100.00;97226.45;109565;1251;60827;-74
2023/04/01 04:59:55;;;;;;;4.20;2.50;;;;;;;8.88;100.00;97224.44;109364;1251;64039;-74
2023/04/01 05:02:21;;;;;;;4.40;2.70;;;;;;;8.92;100.00;97221.40;109576;1251;58871;-74
2023/04/01 05:04:48;;;;;;;3.90;2.70;;;;;;;8.97;100.00;97220.80;109387;1251;59313;-74
2023/04/01 05:07:15;;;;;;;6.60;3.20;;;;;;;9.01;100.00;97222.94;109576;1251;66705;-74
2023/04/01 05:09:42;;;;;;;4.10;2.60;;;;;;;9.07;100.00;97223.70;109577;1251;59729;-74
2023/04/01 05:12:09;;;;;;;5.30;2.60;;;;;;;9.12;100.00;97221.96;109598;1250;63858;-74
2023/04/01 05:14:35;;;;;;;5.20;3.40;;;;;;;9.18;100.00;97222.49;109555;1251;59016;-74
2023/04/01 05:17:02;;;;;;;6.30;3.80;;;;;;;9.22;100.00;97222.80;109555;1251;59105;-74
2023/04/01 05:19:28;;;;;;;9.10;4.90;;;;;;;9.26;100.00;97224.28;109566;1251;65733;-74
2023/04/01 05:21:55;;;;;;;7.40;3.90;;;;;;;9.28;100.00;97229.22;109562;1251;60795;-74
2023/04/01 05:24:22;;;;;;;4.80;3.10;;;;;;;9.30;100.00;97227.23;109531;1250;64730;-74
2023/04/01 05:26:48;;;;;;;6.90;3.10;;;;;;;9.32;100.00;97225.45;109518;1251;58998;-74
2023/04/01 05:29:15;;;;;;;4.20;2.80;;;;;;;9.35;100.00;97226.13;109578;1250;58891;-74
2023/04/01 05:31:41;;;;;;;5.20;3.10;;;;;;;9.37;100.00;97225.91;109543;1251;66185;-75
2023/04/01 05:34:08;;;;;;;6.30;3.20;;;;;;;9.39;100.00;97228.02;109625;1250;59101;-75
2023/04/01 05:36:35;;;;;;;4.30;2.60;;;;;;;9.39;100.00;97229.12;109413;1254;64836;-75
2023/04/01 05:39:03;;;;;;;6.10;3.00;;;;;;;9.37;100.00;97233.14;109533;1251;59069;-75
2023/04/01 05:41:29;;;;;;;4.40;2.50;;;;;;;9.35;100.00;97237.64;109667;1250;59062;-74
2023/04/01 05:43:56;;;;;;;3.30;2.30;;;;;;;9.32;100.00;97236.48;109673;1251;66678;-75
2023/04/01 05:46:22;;;;;;;5.20;2.50;;;;;;;9.30;100.00;97239.64;109668;1251;60054;-74
2023/04/01 05:48:49;;;;;;;6.10;3.30;;;;;;;9.30;100.00;97239.13;109674;1250;65028;-75
2023/04/01 05:51:16;;;;;;;3.70;2.70;;;;;;;9.31;100.00;97239.55;109300;1251;59342;-74
2023/04/01 05:53:42;;;;;;;4.80;2.80;;;;;;;9.34;100.00;97241.27;109726;1250;58879;-75
2023/04/01 05:56:09;;;;;;;4.20;2.50;;;;;;;9.40;100.00;97239.84;109720;1251;67136;-74
2023/04/01 05:58:37;;;;;;;3.60;2.60;;;;;;;9.50;100.00;97239.43;109681;1250;60139;-75
2023/04/01 06:01:07;;;;;;;4.80;2.50;;;;;;;9.67;100.00;97243.60;109405;1250;64474;-75
2023/04/01 06:03:33;;;;;;;4.10;2.40;;;;;;;9.85;100.00;97241.74;109792;1250;58962;-76
2023/04/01 06:06:00;;;;;;;4.40;2.40;;;;;;;9.98;100.00;97245.01;109684;1249;59062;-75
2023/04/01 06:08:30;;;;;;;17.10;10.30;;;;;;;10.06;100.00;97246.52;109706;1250;65717;-75
2023/04/01 06:10:57;;;;;;;5.40;4.40;;;;;;;10.16;100.00;97245.63;109701;1251;61408;-75
2023/04/01 06:13:51;;;;;;;5.30;4.30;;;;;;;10.24;100.00;97245.92;109376;1251;62720;-75
2023/04/01 06:16:32;;;;;;;4.40;2.80;;;;;;;10.37;100.00;97243.84;109683;1250;58952;-75
2023/04/01 06:19:11;;;;;;;4.20;2.90;;;;;;;10.52;100.00;97244.78;109434;1251;59106;-75
2023/04/01 06:21:59;;;;;;;5.50;3.60;;;;;;;10.64;100.00;97246.34;109723;1250;67139;-75
2023/04/01 06:25:06;;;;;;;6.40;3.40;;;;;;;10.75;100.00;97244.89;109475;1251;60216;-75
2023/04/01 06:27:59;;;;;;;3.70;3.10;;;;;;;10.89;100.00;97247.04;109668;1250;64052;-74
2023/04/01 06:30:32;;;;;;;4.40;2.60;;;;;;;11.04;100.00;97246.55;109539;1251;58984;-74
2023/04/01 06:33:04;;;;;;;5.10;3.40;;;;;;;11.13;100.00;97245.89;109686;1249;59022;-74
2023/04/01 06:35:59;;;;;;;3.30;2.90;;;;;;;11.19;100.00;97246.33;109753;1251;67075;-75
2023/04/01 06:38:56;;;;;;;4.80;2.00;;;;;;;11.21;100.00;97251.14;109717;1250;68432;-75
2023/04/01 06:41:54;;;;;;;6.50;3.10;;;;;;;11.14;100.00;97252.20;109725;1250;65473;-75
2023/04/01 06:44:20;;;;;;;4.60;2.00;;;;;;;11.08;100.00;97252.20;109705;1251;59092;-75
2023/04/01 06:46:58;;;;;;;4.40;2.00;;;;;;;11.07;100.00;97255.27;109755;1250;59043;-74
2023/04/01 06:49:25;;;;;;;2.90;2.20;;;;;;;11.08;100.00;97254.86;109683;1250;66749;-75
2023/04/01 06:52:30;;;;;;;3.80;2.50;;;;;;;11.07;100.00;97254.95;109716;1251;61192;-74
2023/04/01 06:55:21;;;;;;;5.80;3.20;;;;;;;11.06;100.00;97257.75;109701;1251;64049;-75
2023/04/01 06:57:52;;;;;;;4.50;2.40;;;;;;;11.06;100.00;97257.55;109670;1251;58917;-75
2023/04/01 07:00:27;;;;;;;5.10;3.30;;;;;;;11.08;100.00;97255.92;109695;1250;58855;-76
2023/04/01 07:03:06;;;;;;;5.60;2.90;;;;;;;11.12;100.00;97252.67;109682;1251;66173;-75
2023/04/01 07:05:35;;;;;;;4.50;2.80;;;;;;;11.22;100.00;97253.15;109434;1251;60401;-75
2023/04/01 07:08:11;;;;;;;4.40;2.40;;;;;;;11.33;100.00;97250.98;109689;1251;65145;-75
2023/04/01 07:10:43;;;;;;;3.50;2.20;;;;;;;11.48;100.00;97254.33;109524;1251;59003;-75
2023/04/01 07:13:21;;;;;;;3.90;2.20;;;;;;;11.65;100.00;97255.67;109375;1255;59061;-75
2023/04/01 07:15:58;;;;;;;4.40;2.50;;;;;;;11.84;99.99;97253.40;109705;1250;67137;-74
2023/04/01 07:18:37;;;;;;;3.40;2.70;;;;;;;12.04;99.58;97249.90;109663;1251;59871;-75
2023/04/01 07:21:05;;;;;;;5.40;3.20;;;;;;;12.16;98.87;97250.29;109648;1251;64949;-75
2023/04/01 07:23:44;;;;;;;4.00;3.10;;;;;;;12.23;98.14;97252.92;109643;1250;59015;-75
2023/04/01 07:26:23;;;;;;;5.10;2.80;;;;;;;12.32;97.91;97257.48;109701;1251;59061;-75
2023/04/01 07:28:52;;;;;;;2.40;2.20;;;;;;;12.42;96.19;97260.23;109722;1250;65794;-75
2023/04/01 07:31:28;;;;;;;3.20;1.80;;;;;;;12.46;94.38;97258.72;109692;1253;60773;-75
2023/04/01 07:34:09;;;;;;;5.00;2.20;;;;;;;12.46;93.55;97259.48;109667;1250;64792;-75
2023/04/01 07:36:42;;;;;;;2.90;1.80;;;;;;;12.48;92.95;97263.88;109646;1251;59303;-75
2023/04/01 07:39:25;;;;;;;2.20;1.60;;;;;;;12.49;91.51;97260.94;109695;1250;59004;-76
2023/04/01 07:42:16;;;;;;;3.80;1.80;;;;;;;12.59;92.28;97264.16;109363;1249;66025;-73
2023/04/01 07:45:08;;;;;;;4.40;2.00;;;;;;;12.80;92.87;97264.89;109574;1251;59002;-75
2023/04/01 07:48:09;;;;;;;3.10;1.80;;;;;;;13.03;91.98;97262.90;109665;1251;63681;-75
2023/04/01 07:50:54;;;;;;;4.50;2.30;;;;;;;13.27;89.22;97264.81;108835;1259;59267;-75
2023/04/01 07:53:36;;;;;;;2.70;1.90;;;;;;;13.52;86.59;97268.61;108908;1259;58960;-75
2023/04/01 07:56:05;;;;;;;3.80;1.70;;;;;;;13.77;85.75;97271.27;108959;1260;64813;-75
2023/04/01 07:58:56;;;;;;;4.40;1.70;;;;;;;13.92;84.64;97272.86;108926;1259;59877;-75
2023/04/01 08:01:35;;;;;;;3.40;1.90;;;;;;;14.05;83.34;97277.52;108907;1260;64006;-75
2023/04/01 08:04:22;;;;;;;4.00;2.10;;;;;;;14.24;84.74;97275.58;108930;1259;58964;-75
2023/04/01 08:07:00;;;;;;;2.90;1.90;;;;;;;14.40;83.29;97274.56;108905;1260;59139;-75
2023/04/01 08:09:37;;;;;;;1.80;1.40;;;;;;;14.38;81.11;97276.48;108917;1259;67084;-75
2023/04/01 08:12:34;;;;;;;2.80;1.90;;;;;;;14.29;80.76;97274.52;108971;1259;60859;-79
2023/04/01 08:15:07;;;;;;;4.90;3.70;;;;;;;14.32;80.33;97281.24;108919;1259;65090;-78
2023/04/01 08:18:03;;;;;;;3.70;2.10;;;;;;;14.43;79.89;97281.73;108964;1259;58989;-79
2023/04/01 08:20:50;;;;;;;1.90;1.50;;;;;;;14.63;78.96;97283.48;108993;1259;59189;-77
2023/04/01 08:23:27;;;;;;;2.80;1.60;;;;;;;14.88;78.95;97284.88;108983;1260;66748;-78
2023/04/01 08:26:15;;;;;;;3.60;1.70;;;;;;;15.05;79.09;97284.85;108975;1259;61058;-77
2023/04/01 08:28:50;;;;;;;3.40;2.00;;;;;;;15.13;78.08;97290.59;109599;1251;65282;-79
2023/04/01 08:31:41;;;;;;;3.60;1.90;;;;;;;15.10;77.75;97285.41;109659;1250;58985;-79
2023/04/01 08:34:18;;;;;;;3.20;1.80;;;;;;;14.95;77.63;97287.22;108999;1258;58916;-78
2023/04/01 08:36:58;;;;;;;3.00;1.80;;;;;;;14.66;78.27;97286.73;108998;1259;73498;-76
2023/04/01 08:39:42;;;;;;;3.60;2.10;;;;;;;14.32;78.94;97289.22;108925;1260;60498;-77
2023/04/01 08:42:18;;;;;;;3.20;2.30;;;;;;;13.93;79.87;97289.36;108926;1260;64256;-78
2023/04/01 08:45:16;;;;;;;2.90;2.10;;;;;;;13.63;79.98;97286.88;108983;1258;59075;-78
2023/04/01 08:47:55;;;;;;;3.10;2.20;;;;;;;13.36;81.55;97292.38;108984;1260;59008;-78
2023/04/01 08:50:50;;;;;;;4.40;2.30;;;;;;;13.14;82.66;97294.38;108966;1259;66912;-78
2023/04/01 08:53:29;;;;;;;3.20;2.20;;;;;;;12.83;83.28;97295.45;108965;1259;61272;-78
2023/04/01 08:56:10;;;;;;;2.80;2.10;;;;;;;12.51;84.48;97294.23;108944;1259;64994;-79
2023/04/01 08:58:54;;;;;;;5.30;2.70;;;;;;;12.23;86.13;97297.28;108634;1262;59123;-77
2023/04/01 09:01:36;;;;;;;4.00;2.90;;;;;;;12.05;88.17;97303.85;108831;1263;59497;-78
2023/04/01 09:04:22;;;;;;;3.40;2.60;;;;;;;12.02;89.34;97306.98;108801;1261;67569;-77
2023/04/01 09:06:51;;;;;;;4.50;3.30;;;;;;;12.06;89.97;97311.27;108817;1265;59755;-81
2023/04/01 09:09:39;;;;;;;3.90;2.90;;;;;;;12.15;89.47;97313.01;108818;1262;65087;-79
2023/04/01 09:12:45;;;;;;;4.70;2.20;;;;;;;12.33;89.47;97305.89;109144;1255;59433;-77
2023/04/01 09:15:27;;;;;;;4.00;2.30;;;;;;;12.47;89.13;97306.05;109262;1255;59325;-78
2023/04/01 09:18:11;;;;;;;3.30;2.20;;;;;;;12.56;88.37;97306.71;109293;1256;65672;-78
2023/04/01 09:20:47;;;;;;;3.20;1.80;;;;;;;12.66;88.38;97304.86;109274;1256;59814;-78
2023/04/01 09:23:56;;;;;;;2.80;2.00;;;;;;;12.80;87.92;97302.45;109126;1256;218484;-77
2023/04/01 09:26:35;;;;;;;2.90;1.80;;;;;;;12.86;86.87;97301.68;109270;1257;59120;-77
2023/04/01 09:29:02;;;;;;;3.80;2.30;;;;;;;12.94;86.45;97301.90;109315;1254;59049;-78
2023/04/01 09:31:38;;;;;;;4.10;2.80;;;;;;;13.07;85.86;97300.09;109301;1253;66082;-79
2023/04/01 09:34:43;;;;;;;3.20;2.50;;;;;;;13.24;85.45;97302.25;109191;1253;59148;-79
2023/04/01 09:37:30;;;;;;;2.70;1.90;;;;;;;13.43;85.60;97301.98;108939;1260;64823;-78
2023/04/01 09:40:12;;;;;;;2.70;2.00;;;;;;;13.61;84.75;97304.39;108920;1259;59057;-77
2023/04/01 09:43:03;;;;;;;2.60;2.00;;;;;;;13.67;84.13;97306.92;108958;1260;59027;-78
2023/04/01 09:45:58;;;;;;;3.00;2.10;;;;;;;13.55;85.02;97308.56;108965;1259;65998;-78
2023/04/01 09:48:38;;;;;;;3.90;2.30;;;;;;;13.35;86.75;97311.48;108982;1260;61251;-77
2023/04/01 09:51:23;;;;;;;4.20;2.40;;;;;;;13.16;88.16;97313.34;108989;1259;63726;-79
2023/04/01 09:54:03;;;;;;;3.60;2.80;;;;;;;13.14;89.47;97315.14;108925;1260;59241;-78
2023/04/01 09:56:50;;;;;;;3.20;2.70;;;;;;;13.28;90.54;97312.31;108963;1259;59103;-78
2023/04/01 09:59:33;;;;;;;5.00;3.50;;;;;;;13.40;90.64;97314.64;108661;1265;67274;-78
2023/04/01 10:02:02;;;;;;;6.60;3.70;;;;;;;13.49;90.78;97314.64;108651;1265;60756;-77
2023/04/01 10:04:47;;;;;;;3.10;2.70;;;;;;;13.62;91.61;97312.64;108644;1264;64044;-78
2023/04/01 10:07:51;;;;;;;4.40;2.40;;;;;;;13.89;90.97;97310.55;108654;1266;59062;-78
2023/04/01 10:10:59;;;;;;;2.80;2.10;;;;;;;14.30;91.27;97310.55;108710;1264;59042;-78
2023/04/01 10:13:51;;;;;;;2.30;2.10;;;;;;;14.84;87.71;97304.72;108830;1264;66142;-76
2023/04/01 10:16:55;;;;;;;2.40;1.90;;;;;;;15.25;85.83;97304.59;109146;1257;60157;-77
2023/04/01 10:19:31;;;;;;;2.70;2.20;;;;;;;15.51;84.38;97303.08;109067;1257;65274;-77
2023/04/01 10:22:12;;;;;;;3.40;2.00;;;;;;;15.45;82.85;97303.25;108922;1257;59037;-76
2023/04/01 10:24:57;;;;;;;2.90;1.90;;;;;;;15.34;82.55;97306.84;109093;1257;59227;-78
2023/04/01 10:28:01;;;;;;;2.80;2.10;;;;;;;15.18;82.03;97307.04;109054;1257;67251;-76
2023/04/01 10:31:03;;;;;;;3.20;1.90;;;;;;;14.84;80.36;97315.87;108919;1257;61237;-77
2023/04/01 10:33:38;;;;;;;5.20;2.70;;;;;;;14.39;81.25;97317.61;108806;1263;64050;-76
2023/04/01 10:36:23;;;;;;;3.50;2.30;;;;;;;13.99;81.94;97316.96;108918;1256;59050;-79
2023/04/01 10:39:04;;;;;;;3.30;2.60;;;;;;;13.62;83.20;97318.86;109148;1257;59122;-78
2023/04/01 10:41:36;;;;;;;2.80;2.50;;;;;;;13.43;84.24;97317.39;109145;1257;67240;-77
2023/04/01 10:44:40;;;;;;;3.00;2.70;;;;;;;13.36;84.36;97318.36;109132;1258;60832;-77
2023/04/01 10:47:43;;;;;;;2.60;2.20;;;;;;;13.42;83.92;97318.49;109130;1256;64196;-79
2023/04/01 10:50:47;;;;;;;2.90;2.50;;;;;;;13.53;83.59;97318.59;109109;1257;59117;-78
2023/04/01 10:54:07;;;;;;;3.50;2.30;;;;;;;13.74;82.64;97314.63;109124;1257;58898;-78
2023/04/01 10:56:38;;;;;;;2.80;2.50;;;;;;;14.01;82.90;97314.02;108043;1271;66249;-77
2023/04/01 10:59:11;;;;;;;3.00;2.20;;;;;;;14.23;81.99;97317.17;108069;1273;61100;-78
2023/04/01 11:02:08;;;;;;;2.60;2.40;;;;;;;14.33;81.99;97322.70;108072;1271;63675;-78
2023/04/01 11:04:50;;;;;;;2.70;2.30;;;;;;;14.43;81.36;97321.39;108032;1272;59453;-77
2023/04/01 11:07:35;;;;;;;3.20;2.40;;;;;;;14.46;81.09;97318.92;108086;1271;58977;-77
2023/04/01 11:10:28;;;;;;;2.60;1.80;;;;;;;14.52;81.18;97314.81;108017;1268;66195;-74
2023/04/01 11:13:14;;;;;;;2.30;2.10;;;;;;;14.73;81.05;97318.17;107715;1274;61183;-74
2023/04/01 11:16:01;;;;;;;3.20;2.30;;;;;;;15.10;79.66;97315.61;107731;1275;65125;-74
2023/04/01 11:18:40;;;;;;;2.90;2.60;;;;;;;15.37;78.60;97312.30;107693;1276;59033;-74
2023/04/01 11:21:49;;;;;;;4.60;2.30;;;;;;;15.27;77.63;97310.62;107677;1279;59209;-74
2023/04/01 11:25:08;;;;;;;2.60;2.00;;;;;;;14.98;77.89;97308.05;107687;1275;66176;-74
2023/04/01 11:27:53;;;;;;;4.00;2.30;;;;;;;14.64;78.42;97305.95;107150;1280;61198;-75
2023/04/01 11:30:39;;;;;;;5.40;2.60;;;;;;;14.31;79.12;97309.13;106817;1280;64933;-75
2023/04/01 11:33:39;;;;;;;3.20;2.40;;;;;;;13.93;80.86;97305.03;107455;1276;59209;-75
2023/04/01 11:36:19;;;;;;;3.40;2.80;;;;;;;13.58;82.21;97308.30;108218;1268;59033;-75
2023/04/01 11:38:58;;;;;;;3.70;2.70;;;;;;;13.43;83.30;97316.12;108396;1268;66062;-75
2023/04/01 11:41:33;;;;;;;3.00;2.00;;;;;;;13.57;84.25;97313.52;108383;1268;60091;-75
2023/04/01 11:44:23;;;;;;;2.90;2.10;;;;;;;13.85;84.35;97308.09;108364;1268;64927;-75
2023/04/01 11:47:14;;;;;;;3.20;1.90;;;;;;;13.98;83.73;97308.79;108363;1268;58990;-75
2023/04/01 11:50:02;;;;;;;2.20;1.40;;;;;;;13.86;82.51;97312.63;108498;1259;59216;-74
2023/04/01 11:52:53;;;;;;;2.00;1.30;;;;;;;13.63;82.44;97321.67;108709;1259;66167;-74
2023/04/01 11:55:24;;;;;;;2.20;1.20;;;;;;;13.35;83.77;97329.07;108923;1259;69561;-74
2023/04/01 11:58:25;;;;;;;2.40;1.20;;;;;;;13.25;84.94;97325.52;108851;1259;63693;-74
2023/04/01 12:00:57;;;;;;;;;;;;;;;13.28;86.25;97328.79;108837;1262;59353;-74
2023/04/01 12:03:51;;;;;;;2.10;0.90;;;;;;;13.40;87.52;97329.42;109279;1253;59000;-74
2023/04/01 12:06:33;;;;;;;1.30;1.00;;;;;;;13.80;87.74;97327.90;109449;1253;65689;-75
2023/04/01 12:09:45;;;;;;;1.40;1.20;;;;;;;14.13;86.95;97321.33;109480;1253;61140;-75